source [weather.noaa.gov]
EDDP 211750Z 31020KT 9999 FEW045 17/03 Q1016 TEMPO 31020G30KT

EDDC 211750Z 32007KT 290V350 9999 SCT047 BKN300 15/08 Q1015 TEMPO 32015G30KT

EDDE 211750Z 31015KT CAVOK 16/02 Q1018 TEMPO 32020G30KT